createdAt,value
2022-11-16T00:01:51.457Z,13.90
2022-11-16T00:04:18.731Z,8.85
2022-11-16T00:06:46.913Z,10.82
2022-11-16T00:09:23.103Z,12.77
2022-11-16T00:11:53.415Z,11.48
2022-11-16T00:14:22.264Z,10.85
2022-11-16T00:16:49.425Z,11.80
2022-11-16T00:19:16.713Z,17.92
2022-11-16T00:21:43.944Z,9.98
2022-11-16T00:24:14.227Z,7.38
2022-11-16T00:26:41.869Z,8.77
2022-11-16T00:29:16.992Z,10.98
2022-11-16T00:31:44.964Z,8.10
2022-11-16T00:34:13.048Z,11.07
2022-11-16T00:36:40.343Z,9.13
2022-11-16T00:39:07.702Z,12.07
2022-11-16T00:41:34.808Z,11.55
2022-11-16T00:44:02.252Z,14.20
2022-11-16T00:46:29.494Z,10.80
2022-11-16T00:48:57.109Z,10.55
2022-11-16T00:51:24.685Z,10.88
2022-11-16T00:53:52.197Z,7.97
2022-11-16T00:56:19.826Z,12.13
2022-11-16T00:58:46.891Z,7.38
2022-11-16T01:01:14.596Z,6.80
2022-11-16T01:03:42.252Z,10.00
2022-11-16T01:06:11.910Z,10.25
2022-11-16T01:08:40.789Z,15.50
2022-11-16T01:11:27.546Z,11.65
2022-11-16T01:13:55.873Z,12.98
2022-11-16T01:16:24.248Z,19.85
2022-11-16T01:18:53.536Z,15.10
2022-11-16T01:21:21.507Z,14.63
2022-11-16T01:23:49.427Z,16.75
2022-11-16T01:26:16.988Z,9.30
2022-11-16T01:28:44.569Z,14.98
2022-11-16T01:31:13.110Z,11.07
2022-11-16T01:33:41.252Z,14.15
2022-11-16T01:36:16.499Z,9.10
2022-11-16T01:38:45.875Z,10.05
2022-11-16T01:41:17.451Z,12.23
2022-11-16T01:44:15.533Z,12.15
2022-11-16T01:49:24.627Z,15.07
2022-11-16T01:51:59.667Z,15.63
2022-11-16T01:54:31.381Z,12.23
2022-11-16T01:57:03.942Z,19.35
2022-11-16T01:59:48.529Z,19.10
2022-11-16T02:02:19.865Z,23.77
2022-11-16T02:04:49.400Z,20.83
2022-11-16T02:08:04.609Z,18.02
2022-11-16T02:10:35.178Z,19.23
2022-11-16T02:13:30.333Z,22.38
2022-11-16T02:16:19.375Z,18.55
2022-11-16T02:18:57.123Z,21.92
2022-11-16T02:21:42.911Z,16.63
2022-11-16T02:24:16.006Z,20.85
2022-11-16T02:26:49.365Z,16.13
2022-11-16T02:32:02.590Z,14.55
2022-11-16T02:34:37.570Z,10.52
2022-11-16T02:37:08.164Z,12.05
2022-11-16T02:39:39.237Z,12.38
2022-11-16T02:42:11.584Z,17.13
2022-11-16T02:44:45.205Z,18.40
2022-11-16T02:47:20.860Z,16.73
2022-11-16T02:49:56.608Z,12.05
2022-11-16T02:52:24.864Z,14.57
2022-11-16T02:54:52.527Z,10.75
2022-11-16T02:58:10.246Z,21.75
2022-11-16T03:01:09.030Z,18.05
2022-11-16T03:04:05.728Z,9.88
2022-11-16T03:06:37.714Z,14.68
2022-11-16T03:09:31.696Z,17.15
2022-11-16T03:12:02.109Z,12.98
2022-11-16T03:14:36.894Z,11.05
2022-11-16T03:17:09.387Z,6.72
2022-11-16T03:19:46.695Z,17.50
2022-11-16T03:22:28.900Z,9.63
2022-11-16T03:24:56.242Z,10.88
2022-11-16T03:28:11.552Z,12.10
2022-11-16T03:30:45.279Z,11.43
2022-11-16T03:33:24.846Z,15.02
2022-11-16T03:36:11.042Z,12.75
2022-11-16T03:38:41.641Z,12.98
2022-11-16T03:41:11.687Z,11.85
2022-11-16T03:43:42.784Z,12.70
2022-11-16T03:46:10.820Z,12.48
2022-11-16T03:48:40.657Z,14.38
2022-11-16T03:51:14.525Z,10.63
2022-11-16T03:53:42.959Z,14.60
2022-11-16T03:56:12.373Z,13.02
2022-11-16T03:58:39.822Z,7.72
2022-11-16T04:01:07.418Z,13.82
2022-11-16T04:03:34.741Z,9.50
2022-11-16T04:06:20.926Z,22.13
2022-11-16T04:09:07.622Z,16.27
2022-11-16T04:11:56.608Z,16.10
2022-11-16T04:14:44.259Z,8.00
2022-11-16T04:17:35.143Z,12.85
2022-11-16T04:20:21.877Z,9.07
2022-11-16T04:23:23.477Z,8.75
2022-11-16T04:25:52.484Z,6.68
2022-11-16T04:28:31.720Z,8.70
2022-11-16T04:31:23.315Z,13.55
2022-11-16T04:34:22.841Z,7.85
2022-11-16T04:37:12.303Z,8.60
2022-11-16T04:39:41.013Z,4.78
2022-11-16T04:42:17.660Z,13.05
2022-11-16T04:45:05.405Z,17.02
2022-11-16T04:47:53.803Z,16.33
2022-11-16T04:50:25.140Z,34.70
2022-11-16T04:52:52.365Z,30.92
2022-11-16T04:55:20.313Z,25.70
2022-11-16T04:57:49.127Z,22.23
2022-11-16T05:00:20.570Z,26.20
2022-11-16T05:02:50.722Z,29.25
2022-11-16T05:05:28.964Z,15.18
2022-11-16T05:07:58.865Z,16.00
2022-11-16T05:10:29.286Z,14.38
2022-11-16T05:12:57.829Z,20.42
2022-11-16T05:15:26.183Z,24.77
2022-11-16T05:17:56.156Z,17.15
2022-11-16T05:20:43.936Z,21.00
2022-11-16T05:23:32.493Z,15.20
2022-11-16T05:26:05.991Z,17.50
2022-11-16T05:28:34.956Z,31.55
2022-11-16T05:31:04.808Z,30.75
2022-11-16T05:33:33.538Z,24.00
2022-11-16T05:36:00.839Z,21.98
2022-11-16T05:38:28.068Z,16.25
2022-11-16T05:40:58.548Z,16.38
2022-11-16T05:43:26.024Z,17.40
2022-11-16T05:46:02.373Z,24.73
2022-11-16T05:48:29.693Z,15.50
2022-11-16T05:50:59.714Z,15.95
2022-11-16T05:53:29.082Z,25.13
2022-11-16T05:55:57.793Z,30.05
2022-11-16T05:58:25.032Z,25.90
2022-11-16T06:00:53.324Z,29.80
2022-11-16T06:03:20.792Z,44.80
2022-11-16T06:05:48.916Z,35.85
2022-11-16T06:08:18.606Z,34.03
2022-11-16T06:10:46.556Z,25.58
2022-11-16T06:13:13.993Z,25.58
2022-11-16T06:15:41.701Z,22.50
2022-11-16T06:18:10.212Z,30.73
2022-11-16T06:20:40.313Z,23.83
2022-11-16T06:23:08.217Z,30.20
2022-11-16T06:25:39.644Z,16.05
2022-11-16T06:28:08.451Z,16.73
2022-11-16T06:30:38.338Z,18.52
2022-11-16T06:33:06.953Z,16.10
2022-11-16T06:35:34.443Z,21.08
2022-11-16T06:38:02.833Z,13.70
2022-11-16T06:40:30.739Z,18.20
2022-11-16T06:42:59.937Z,14.90
2022-11-16T06:45:27.786Z,10.27
2022-11-16T06:47:58.299Z,12.43
2022-11-16T06:50:27.165Z,12.38
2022-11-16T06:52:55.409Z,13.23
2022-11-16T06:55:23.753Z,17.88
2022-11-16T06:57:51.266Z,14.02
2022-11-16T07:00:18.692Z,13.20
2022-11-16T07:02:46.819Z,15.10
2022-11-16T07:05:17.493Z,9.48
2022-11-16T07:07:46.387Z,13.95
2022-11-16T07:10:14.161Z,9.63
2022-11-16T07:12:43.122Z,9.07
2022-11-16T07:15:11.130Z,10.23
2022-11-16T07:17:43.157Z,11.75
2022-11-16T07:20:12.341Z,8.30
2022-11-16T07:22:40.778Z,7.68
2022-11-16T07:25:12.959Z,7.50
2022-11-16T07:27:40.044Z,16.52
2022-11-16T07:30:08.090Z,11.90
2022-11-16T07:33:03.770Z,8.90
2022-11-16T07:36:10.212Z,11.70
2022-11-16T07:38:38.618Z,12.07
2022-11-16T07:41:07.877Z,15.93
2022-11-16T07:43:37.980Z,22.10
2022-11-16T07:49:13.876Z,21.35
2022-11-16T07:51:59.546Z,24.00
2022-11-16T07:55:06.122Z,27.48
2022-11-16T07:57:34.621Z,30.58
2022-11-16T08:00:06.772Z,36.35
2022-11-16T08:02:40.771Z,28.52
2022-11-16T08:05:13.494Z,33.55
2022-11-16T08:07:41.125Z,31.75
2022-11-16T08:10:08.984Z,40.40
2022-11-16T08:12:36.313Z,39.00
2022-11-16T08:15:03.789Z,30.08
2022-11-16T08:17:31.330Z,49.40
2022-11-16T08:19:59.390Z,31.60
2022-11-16T08:22:26.504Z,32.35
2022-11-16T08:24:53.763Z,30.92
2022-11-16T08:27:20.910Z,39.20
2022-11-16T08:29:52.676Z,34.83
2022-11-16T08:32:21.420Z,31.67
2022-11-16T08:34:48.808Z,33.70
2022-11-16T08:37:16.404Z,31.58
2022-11-16T08:39:45.157Z,27.65
2022-11-16T08:42:12.523Z,29.25
2022-11-16T08:44:43.905Z,31.27
2022-11-16T08:47:14.354Z,40.33
2022-11-16T08:49:49.694Z,24.42
2022-11-16T08:52:18.901Z,32.75
2022-11-16T08:54:46.630Z,21.63
2022-11-16T08:57:14.062Z,32.08
2022-11-16T08:59:43.207Z,22.08
2022-11-16T09:02:13.709Z,28.60
2022-11-16T09:04:41.221Z,20.45
2022-11-16T09:07:08.450Z,22.38
2022-11-16T09:09:36.514Z,26.55
2022-11-16T09:12:03.737Z,31.98
2022-11-16T09:14:30.933Z,18.85
2022-11-16T09:16:58.033Z,17.05
2022-11-16T09:19:25.229Z,23.60
2022-11-16T09:21:52.531Z,15.05
2022-11-16T09:24:19.772Z,15.20
2022-11-16T09:26:46.928Z,17.70
2022-11-16T09:29:15.717Z,17.60
2022-11-16T09:31:44.377Z,16.45
2022-11-16T09:34:11.657Z,19.63
2022-11-16T09:36:38.692Z,16.40
2022-11-16T09:41:57.456Z,17.42
2022-11-16T09:44:24.838Z,33.67
2022-11-16T09:46:58.435Z,30.48
2022-11-16T09:49:38.535Z,37.30
2022-11-16T09:52:11.296Z,35.63
2022-11-16T09:54:44.614Z,21.90
2022-11-16T09:57:16.834Z,14.23
2022-11-16T09:59:55.455Z,23.55
2022-11-16T10:03:04.892Z,14.95
2022-11-16T10:05:39.268Z,18.15
2022-11-16T10:08:26.562Z,18.75
2022-11-16T10:10:57.912Z,15.52
2022-11-16T10:13:37.336Z,15.10
2022-11-16T10:16:32.368Z,18.52
2022-11-16T10:19:18.042Z,16.30
2022-11-16T10:22:03.461Z,20.55
2022-11-16T10:25:01.338Z,13.90
2022-11-16T10:27:38.435Z,12.95
2022-11-16T10:30:22.850Z,15.18
2022-11-16T10:32:59.895Z,10.85
2022-11-16T10:35:36.541Z,11.13
2022-11-16T10:38:15.785Z,12.30
2022-11-16T10:40:47.394Z,14.55
2022-11-16T10:43:20.892Z,9.07
2022-11-16T10:45:52.626Z,10.43
2022-11-16T10:48:39.958Z,15.55
2022-11-16T10:51:09.541Z,16.52
2022-11-16T10:53:38.969Z,20.77
2022-11-16T10:56:29.022Z,34.67
2022-11-16T10:59:06.538Z,31.65
2022-11-16T11:01:41.248Z,19.30
2022-11-16T11:04:30.087Z,15.80
2022-11-16T11:07:16.153Z,21.60
2022-11-16T11:09:43.821Z,24.45
2022-11-16T11:12:32.651Z,26.05
2022-11-16T11:15:11.754Z,20.42
2022-11-16T11:17:41.818Z,21.58
2022-11-16T11:20:15.277Z,22.33
2022-11-16T11:22:52.669Z,22.42
2022-11-16T11:25:27.402Z,19.95
2022-11-16T11:28:34.831Z,18.88
2022-11-16T11:31:26.208Z,16.63
2022-11-16T11:34:09.971Z,19.52
2022-11-16T11:36:43.349Z,19.27
2022-11-16T11:39:13.652Z,13.35
2022-11-16T11:41:44.507Z,9.07
2022-11-16T11:44:18.243Z,14.48
2022-11-16T11:50:19.933Z,23.83
2022-11-16T11:53:17.433Z,18.60
2022-11-16T11:55:44.523Z,14.18
2022-11-16T11:58:19.769Z,14.80
2022-11-16T12:01:19.543Z,12.27
2022-11-16T12:06:51.468Z,18.92
2022-11-16T12:09:18.780Z,11.90
2022-11-16T12:11:58.081Z,12.32
2022-11-16T12:14:58.812Z,11.65
2022-11-16T12:17:44.475Z,10.75
2022-11-16T12:20:26.801Z,11.18
2022-11-16T12:23:21.781Z,14.18
2022-11-16T12:25:57.981Z,12.60
2022-11-16T12:29:01.309Z,6.50
2022-11-16T12:31:36.694Z,9.10
2022-11-16T12:34:37.938Z,12.80
2022-11-16T12:37:43.714Z,10.55
2022-11-16T12:40:23.009Z,16.15
2022-11-16T12:43:04.187Z,8.27
2022-11-16T12:45:50.064Z,8.68
2022-11-16T12:48:36.775Z,12.18
2022-11-16T12:51:31.560Z,9.20
2022-11-16T12:54:18.265Z,9.20
2022-11-16T12:57:04.309Z,10.80
2022-11-16T12:59:51.561Z,8.75
2022-11-16T13:02:46.695Z,14.18
2022-11-16T13:05:19.874Z,15.48
2022-11-16T13:10:37.331Z,8.02
2022-11-16T13:13:35.508Z,13.45
2022-11-16T13:16:02.406Z,16.58
2022-11-16T13:18:32.018Z,10.63
2022-11-16T13:21:08.441Z,14.13
2022-11-16T13:24:00.731Z,14.10
2022-11-16T13:26:39.521Z,14.85
2022-11-16T13:29:15.858Z,22.42
2022-11-16T13:32:06.201Z,22.83
2022-11-16T13:34:35.675Z,13.23
2022-11-16T13:37:34.736Z,7.93
2022-11-16T13:40:01.950Z,11.48
2022-11-16T13:42:30.997Z,8.18
2022-11-16T13:45:16.324Z,6.88
2022-11-16T13:47:56.897Z,7.60
2022-11-16T13:50:38.981Z,25.38
2022-11-16T13:56:09.851Z,30.02
2022-11-16T13:58:44.329Z,13.82
2022-11-16T14:01:16.456Z,11.68
2022-11-16T14:03:51.799Z,8.48
2022-11-16T14:06:25.214Z,14.10
2022-11-16T14:08:54.049Z,12.18
2022-11-16T14:11:41.498Z,6.65
2022-11-16T14:14:13.961Z,11.00
2022-11-16T14:16:45.578Z,6.90
2022-11-16T14:19:57.900Z,6.53
2022-11-16T14:23:01.105Z,17.23
2022-11-16T14:25:55.944Z,22.65
2022-11-16T14:28:38.551Z,9.77
2022-11-16T14:31:28.121Z,9.90
2022-11-16T14:33:59.111Z,12.85
2022-11-16T14:36:40.997Z,15.43
2022-11-16T14:39:27.279Z,11.82
2022-11-16T14:41:57.159Z,15.88
2022-11-16T14:44:28.052Z,12.30
2022-11-16T14:46:56.362Z,16.67
2022-11-16T14:49:26.633Z,8.63
2022-11-16T14:52:01.811Z,5.80
2022-11-16T14:54:48.208Z,5.43
2022-11-16T14:57:24.004Z,6.82
2022-11-16T15:00:13.225Z,10.55
2022-11-16T15:02:41.344Z,6.78
2022-11-16T15:05:17.055Z,6.07
2022-11-16T15:07:46.409Z,5.72
2022-11-16T15:10:22.992Z,4.95
2022-11-16T15:12:52.152Z,9.80
2022-11-16T15:15:24.393Z,7.47
2022-11-16T15:18:00.583Z,8.27
2022-11-16T15:20:30.396Z,3.22
2022-11-16T15:22:59.806Z,2.75
2022-11-16T15:25:36.125Z,4.75
2022-11-16T15:28:06.005Z,4.10
2022-11-16T15:30:37.450Z,6.32
2022-11-16T15:33:11.357Z,4.35
2022-11-16T15:35:39.281Z,3.58
2022-11-16T15:38:32.600Z,9.73
2022-11-16T15:41:04.639Z,4.72
2022-11-16T15:43:41.080Z,5.00
2022-11-16T15:46:15.171Z,6.18
2022-11-16T15:48:43.350Z,5.13
2022-11-16T15:51:11.010Z,4.05
2022-11-16T15:53:43.709Z,7.80
2022-11-16T15:56:13.649Z,4.88
2022-11-16T15:58:42.079Z,3.83
2022-11-16T16:01:12.543Z,8.82
2022-11-16T16:03:46.425Z,5.45
2022-11-16T16:06:16.796Z,5.05
2022-11-16T16:08:45.427Z,5.25
2022-11-16T16:11:27.935Z,3.67
2022-11-16T16:14:03.328Z,4.50
2022-11-16T16:16:40.290Z,4.13
2022-11-16T16:19:36.159Z,10.20
2022-11-16T16:22:05.765Z,8.05
2022-11-16T16:24:46.986Z,5.25
2022-11-16T16:27:19.813Z,6.93
2022-11-16T16:29:48.993Z,8.55
2022-11-16T16:32:26.692Z,3.13
2022-11-16T16:34:59.367Z,3.85
2022-11-16T16:37:28.768Z,4.38
2022-11-16T16:39:56.209Z,2.30
2022-11-16T16:42:23.370Z,10.95
2022-11-16T16:44:51.261Z,3.88
2022-11-16T16:47:21.031Z,3.65
2022-11-16T16:49:49.249Z,6.90
2022-11-16T16:52:17.256Z,4.30
2022-11-16T16:54:44.950Z,3.42
2022-11-16T16:57:14.653Z,5.82
2022-11-16T16:59:42.778Z,3.20
2022-11-16T17:02:14.550Z,2.85
2022-11-16T17:04:43.725Z,9.55
2022-11-16T17:07:11.176Z,5.60
2022-11-16T17:09:42.236Z,5.75
2022-11-16T17:12:11.521Z,3.63
2022-11-16T17:14:38.707Z,10.07
2022-11-16T17:17:06.214Z,2.47
2022-11-16T17:19:33.763Z,5.93
2022-11-16T17:22:00.971Z,10.32
2022-11-16T17:24:28.130Z,10.30
2022-11-16T17:26:55.987Z,5.15
2022-11-16T17:29:23.265Z,5.32
2022-11-16T17:31:50.602Z,5.20
2022-11-16T17:34:17.968Z,4.25
2022-11-16T17:36:45.370Z,4.50
2022-11-16T17:39:13.043Z,6.63
2022-11-16T17:41:40.060Z,9.35
2022-11-16T17:44:07.581Z,8.98
2022-11-16T17:46:35.067Z,5.07
2022-11-16T17:49:02.436Z,8.35
2022-11-16T17:51:44.701Z,6.53
2022-11-16T17:54:21.276Z,6.38
2022-11-16T17:56:49.162Z,9.48
2022-11-16T17:59:16.635Z,8.50
2022-11-16T18:01:44.129Z,7.65
2022-11-16T18:04:11.486Z,12.98
2022-11-16T18:06:39.858Z,11.32
2022-11-16T18:09:07.575Z,27.08
2022-11-16T18:11:35.345Z,25.50
2022-11-16T18:14:06.535Z,14.45
2022-11-16T18:16:34.789Z,14.27
2022-11-16T18:19:06.368Z,14.88
2022-11-16T18:21:40.609Z,9.25
2022-11-16T18:24:09.018Z,5.75
2022-11-16T18:26:36.813Z,7.45
2022-11-16T18:29:04.539Z,10.38
2022-11-16T18:31:33.334Z,9.45
2022-11-16T18:34:03.680Z,10.07
2022-11-16T18:36:31.013Z,14.82
2022-11-16T18:38:58.530Z,18.38
2022-11-16T18:41:28.475Z,14.32
2022-11-16T18:43:58.277Z,13.77
2022-11-16T18:46:28.142Z,8.43
2022-11-16T18:48:56.608Z,11.18
2022-11-16T18:51:26.279Z,10.45
2022-11-16T18:53:53.645Z,6.07
2022-11-16T18:56:21.182Z,7.22
2022-11-16T18:58:51.394Z,9.13
2022-11-16T19:01:21.242Z,7.45
2022-11-16T19:03:48.600Z,9.13
2022-11-16T19:06:18.000Z,7.32
2022-11-16T19:08:51.823Z,8.38
2022-11-16T19:11:21.533Z,6.50
2022-11-16T19:13:56.055Z,11.82
2022-11-16T19:16:24.855Z,12.82
2022-11-16T19:18:52.510Z,8.88
2022-11-16T19:21:20.709Z,7.95
2022-11-16T19:23:50.332Z,10.02
2022-11-16T19:26:19.279Z,12.45
2022-11-16T19:28:49.164Z,9.70
2022-11-16T19:31:18.243Z,10.20
2022-11-16T19:33:46.403Z,8.27
2022-11-16T19:36:16.173Z,8.13
2022-11-16T19:38:44.660Z,10.35
2022-11-16T19:41:14.076Z,8.50
2022-11-16T19:43:41.981Z,17.83
2022-11-16T19:46:17.839Z,15.15
2022-11-16T19:48:46.382Z,21.63
2022-11-16T19:51:16.635Z,11.30
2022-11-16T19:53:44.563Z,14.77
2022-11-16T19:56:14.895Z,16.35
2022-11-16T19:58:42.782Z,40.28
2022-11-16T20:01:36.782Z,49.10
2022-11-16T20:04:05.300Z,31.25
2022-11-16T20:06:39.268Z,20.25
2022-11-16T20:09:10.191Z,25.48
2022-11-16T20:11:39.808Z,15.82
2022-11-16T20:14:10.454Z,16.33
2022-11-16T20:16:42.509Z,14.50
2022-11-16T20:19:10.702Z,23.35
2022-11-16T20:21:42.818Z,19.85
2022-11-16T20:24:13.564Z,15.25
2022-11-16T20:26:46.884Z,12.15
2022-11-16T20:31:46.693Z,18.33
2022-11-16T20:34:18.218Z,16.30
2022-11-16T20:36:47.462Z,20.63
2022-11-16T20:39:17.046Z,12.57
2022-11-16T20:41:44.917Z,8.95
2022-11-16T20:44:16.776Z,9.38
2022-11-16T20:46:45.486Z,10.30
2022-11-16T20:49:13.123Z,17.95
2022-11-16T20:51:41.431Z,15.45
2022-11-16T20:54:08.774Z,16.15
2022-11-16T20:56:36.455Z,15.75
2022-11-16T20:59:03.842Z,20.92
2022-11-16T21:01:34.058Z,25.83
2022-11-16T21:04:04.251Z,21.58
2022-11-16T21:06:32.676Z,20.13
2022-11-16T21:09:00.802Z,23.65
2022-11-16T21:11:30.218Z,19.98
2022-11-16T21:14:16.626Z,22.55
2022-11-16T21:16:44.872Z,21.10
2022-11-16T21:19:12.790Z,22.48
2022-11-16T21:21:41.360Z,32.72
2022-11-16T21:24:10.034Z,29.00
2022-11-16T21:26:38.272Z,27.52
2022-11-16T21:29:06.052Z,30.42
2022-11-16T21:31:36.557Z,32.53
2022-11-16T21:34:05.493Z,31.67
2022-11-16T21:36:33.491Z,40.40
2022-11-16T21:39:01.306Z,31.90
2022-11-16T21:41:28.934Z,32.47
2022-11-16T21:43:56.519Z,32.85
2022-11-16T21:46:27.081Z,38.03
2022-11-16T21:48:57.064Z,43.15
2022-11-16T21:51:34.127Z,43.55
2022-11-16T21:54:01.399Z,43.53
2022-11-16T21:56:28.796Z,39.85
2022-11-16T21:58:55.963Z,38.78
2022-11-16T22:01:24.099Z,31.35
2022-11-16T22:04:12.795Z,50.58
2022-11-16T22:06:58.265Z,42.25
2022-11-16T22:09:25.698Z,50.28
2022-11-16T22:11:52.890Z,48.38
2022-11-16T22:14:20.147Z,37.92
2022-11-16T22:16:47.741Z,55.70
2022-11-16T22:19:15.067Z,50.05
2022-11-16T22:21:42.125Z,46.55
2022-11-16T22:24:09.389Z,53.55
2022-11-16T22:26:38.570Z,55.42
2022-11-16T22:29:06.068Z,49.92
2022-11-16T22:31:33.332Z,58.40
2022-11-16T22:34:00.569Z,58.17
2022-11-16T22:36:27.763Z,55.20
2022-11-16T22:38:57.444Z,47.33
2022-11-16T22:41:24.820Z,65.07
2022-11-16T22:43:52.105Z,57.40
2022-11-16T22:46:19.657Z,52.50
2022-11-16T22:48:48.084Z,68.30
2022-11-16T22:51:15.126Z,65.53
2022-11-16T22:53:42.473Z,65.72
2022-11-16T22:56:10.891Z,67.53
2022-11-16T22:58:40.363Z,54.20
2022-11-16T23:01:09.660Z,66.75
2022-11-16T23:03:38.538Z,54.90
2022-11-16T23:06:07.166Z,70.20
2022-11-16T23:08:35.629Z,61.65
2022-11-16T23:11:33.319Z,74.05
2022-11-16T23:14:22.077Z,67.15
2022-11-16T23:16:49.981Z,73.13
2022-11-16T23:19:37.761Z,56.00
2022-11-16T23:22:24.445Z,62.97
2022-11-16T23:25:10.277Z,83.50
2022-11-16T23:27:40.957Z,64.40
2022-11-16T23:30:12.820Z,66.10
2022-11-16T23:32:41.876Z,66.33
2022-11-16T23:35:10.698Z,60.55
2022-11-16T23:37:55.074Z,67.90
2022-11-16T23:40:25.314Z,68.57
2022-11-16T23:43:14.925Z,56.45
2022-11-16T23:45:43.236Z,42.10
2022-11-16T23:48:12.193Z,55.60
2022-11-16T23:50:39.600Z,56.85
2022-11-16T23:53:08.475Z,57.30
2022-11-16T23:55:38.595Z,54.40
2022-11-16T23:58:06.884Z,49.03
